sensor_id;sensor_type;location;lat;lon;timestamp;pressure;altitude;pressure_sealevel;temperature;humidity
17230;BME280;8731;50.364;8.958;2022-11-20T00:00:21;99737.38;;;2.71;87.49
17230;BME280;8731;50.364;8.958;2022-11-20T00:04:43;99743.47;;;2.81;88.30
17230;BME280;8731;50.364;8.958;2022-11-20T00:09:09;99743.47;;;2.81;88.14
17230;BME280;8731;50.364;8.958;2022-11-20T00:13:32;99734.13;;;2.80;87.33
17230;BME280;8731;50.364;8.958;2022-11-20T00:17:54;99734.72;;;2.70;87.76
17230;BME280;8731;50.364;8.958;2022-11-20T00:22:17;99727.00;;;2.68;87.54
17230;BME280;8731;50.364;8.958;2022-11-20T00:26:40;99721.41;;;2.71;87.71
17230;BME280;8731;50.364;8.958;2022-11-20T00:31:04;99731.50;;;2.64;87.83
17230;BME280;8731;50.364;8.958;2022-11-20T00:35:27;99735.81;;;2.65;87.88
17230;BME280;8731;50.364;8.958;2022-11-20T00:39:49;99734.56;;;2.61;86.86
17230;BME280;8731;50.364;8.958;2022-11-20T00:44:13;99716.06;;;2.54;87.51
17230;BME280;8731;50.364;8.958;2022-11-20T00:48:35;99711.75;;;2.53;87.64
17230;BME280;8731;50.364;8.958;2022-11-20T00:52:58;99721.25;;;2.55;87.11
17230;BME280;8731;50.364;8.958;2022-11-20T00:57:20;99719.84;;;2.50;87.95
17230;BME280;8731;50.364;8.958;2022-11-20T01:01:44;99707.47;;;2.44;88.17
17230;BME280;8731;50.364;8.958;2022-11-20T01:06:10;99696.00;;;2.39;88.05
17230;BME280;8731;50.364;8.958;2022-11-20T01:10:33;99700.81;;;2.45;88.99
17230;BME280;8731;50.364;8.958;2022-11-20T01:14:56;99715.56;;;2.42;88.24
17230;BME280;8731;50.364;8.958;2022-11-20T01:19:21;99714.31;;;2.38;88.74
17230;BME280;8731;50.364;8.958;2022-11-20T01:23:45;99712.66;;;2.46;88.40
17230;BME280;8731;50.364;8.958;2022-11-20T01:28:08;99704.75;;;2.36;89.44
17230;BME280;8731;50.364;8.958;2022-11-20T01:32:30;99710.53;;;2.42;89.46
17230;BME280;8731;50.364;8.958;2022-11-20T01:36:54;99717.34;;;2.43;89.47
17230;BME280;8731;50.364;8.958;2022-11-20T01:41:16;99714.09;;;2.44;88.36
17230;BME280;8731;50.364;8.958;2022-11-20T01:46:01;99708.38;;;2.31;89.95
17230;BME280;8731;50.364;8.958;2022-11-20T01:50:26;99707.47;;;2.44;89.40
17230;BME280;8731;50.364;8.958;2022-11-20T01:54:54;99694.00;;;2.44;89.60
17230;BME280;8731;50.364;8.958;2022-11-20T01:59:22;99687.38;;;2.44;89.13
17230;BME280;8731;50.364;8.958;2022-11-20T02:03:47;99686.66;;;2.45;89.19
17230;BME280;8731;50.364;8.958;2022-11-20T02:08:11;99686.63;;;2.53;89.27
17230;BME280;8731;50.364;8.958;2022-11-20T02:12:36;99692.03;;;2.49;89.07
17230;BME280;8731;50.364;8.958;2022-11-20T02:17:16;99694.88;;;2.52;89.16
17230;BME280;8731;50.364;8.958;2022-11-20T02:21:40;99691.09;;;2.55;89.64
17230;BME280;8731;50.364;8.958;2022-11-20T02:26:12;99694.72;;;2.50;89.22
17230;BME280;8731;50.364;8.958;2022-11-20T02:30:37;99696.84;;;2.54;90.18
17230;BME280;8731;50.364;8.958;2022-11-20T02:35:07;99702.41;;;2.52;89.14
17230;BME280;8731;50.364;8.958;2022-11-20T02:39:30;99698.66;;;2.55;89.98
17230;BME280;8731;50.364;8.958;2022-11-20T02:43:54;99695.59;;;2.51;89.24
17230;BME280;8731;50.364;8.958;2022-11-20T02:48:16;99684.66;;;2.50;88.85
17230;BME280;8731;50.364;8.958;2022-11-20T02:52:38;99695.25;;;2.47;88.91
17230;BME280;8731;50.364;8.958;2022-11-20T02:57:00;99687.38;;;2.44;89.05
17230;BME280;8731;50.364;8.958;2022-11-20T03:01:24;99681.28;;;2.28;88.97
17230;BME280;8731;50.364;8.958;2022-11-20T03:05:47;99681.63;;;2.45;89.13
17230;BME280;8731;50.364;8.958;2022-11-20T03:10:09;99676.09;;;2.27;89.51
17230;BME280;8731;50.364;8.958;2022-11-20T03:14:33;99665.69;;;2.38;89.21
17230;BME280;8731;50.364;8.958;2022-11-20T03:18:57;99673.91;;;2.44;89.13
17230;BME280;8731;50.364;8.958;2022-11-20T03:23:20;99679.84;;;2.37;90.12
17230;BME280;8731;50.364;8.958;2022-11-20T03:27:42;99667.81;;;2.35;89.84
17230;BME280;8731;50.364;8.958;2022-11-20T03:32:05;99668.34;;;2.32;90.30
17230;BME280;8731;50.364;8.958;2022-11-20T03:36:29;99669.59;;;2.50;90.34
17230;BME280;8731;50.364;8.958;2022-11-20T03:40:58;99663.28;;;2.54;90.40
17230;BME280;8731;50.364;8.958;2022-11-20T03:45:22;99655.59;;;2.52;90.67
17230;BME280;8731;50.364;8.958;2022-11-20T03:49:44;99651.63;;;2.54;90.23
17230;BME280;8731;50.364;8.958;2022-11-20T03:54:08;99662.75;;;2.56;90.33
17230;BME280;8731;50.364;8.958;2022-11-20T03:58:30;99654.66;;;2.59;89.75
17230;BME280;8731;50.364;8.958;2022-11-20T04:02:53;99653.03;;;2.59;91.09
17230;BME280;8731;50.364;8.958;2022-11-20T04:07:18;99656.44;;;2.60;90.61
17230;BME280;8731;50.364;8.958;2022-11-20T04:11:42;99653.25;;;2.61;89.93
17230;BME280;8731;50.364;8.958;2022-11-20T04:16:05;99651.25;;;2.65;91.24
17230;BME280;8731;50.364;8.958;2022-11-20T04:20:28;99647.13;;;2.66;91.08
17230;BME280;8731;50.364;8.958;2022-11-20T04:24:50;99637.47;;;2.47;90.86
17230;BME280;8731;50.364;8.958;2022-11-20T04:29:14;99636.06;;;2.42;91.67
17230;BME280;8731;50.364;8.958;2022-11-20T04:33:37;99650.56;;;2.52;91.47
17230;BME280;8731;50.364;8.958;2022-11-20T04:38:00;99626.38;;;2.38;91.62
17230;BME280;8731;50.364;8.958;2022-11-20T04:42:22;99621.88;;;2.36;92.19
17230;BME280;8731;50.364;8.958;2022-11-20T04:46:52;99634.56;;;2.59;92.05
17230;BME280;8731;50.364;8.958;2022-11-20T04:51:14;99622.38;;;2.62;91.64
17230;BME280;8731;50.364;8.958;2022-11-20T04:55:36;99626.13;;;2.65;91.58
17230;BME280;8731;50.364;8.958;2022-11-20T04:59:59;99630.25;;;2.65;90.61
17230;BME280;8731;50.364;8.958;2022-11-20T05:04:22;99628.25;;;2.69;91.80
17230;BME280;8731;50.364;8.958;2022-11-20T05:08:45;99613.41;;;2.64;91.93
17230;BME280;8731;50.364;8.958;2022-11-20T05:13:07;99612.66;;;2.65;91.51
17230;BME280;8731;50.364;8.958;2022-11-20T05:17:29;99609.09;;;2.63;91.69
17230;BME280;8731;50.364;8.958;2022-11-20T05:21:54;99617.66;;;2.72;91.04
17230;BME280;8731;50.364;8.958;2022-11-20T05:26:18;99619.44;;;2.73;90.85
17230;BME280;8731;50.364;8.958;2022-11-20T05:30:42;99634.53;;;2.73;91.27
17230;BME280;8731;50.364;8.958;2022-11-20T05:35:05;99625.56;;;2.68;91.58
17230;BME280;8731;50.364;8.958;2022-11-20T05:39:29;99621.59;;;2.77;91.44
17230;BME280;8731;50.364;8.958;2022-11-20T05:43:51;99623.38;;;2.78;91.52
17230;BME280;8731;50.364;8.958;2022-11-20T05:48:14;99631.28;;;2.74;92.57
17230;BME280;8731;50.364;8.958;2022-11-20T05:52:36;99635.94;;;2.78;92.29
17230;BME280;8731;50.364;8.958;2022-11-20T05:56:59;99632.53;;;2.77;91.88
17230;BME280;8731;50.364;8.958;2022-11-20T06:01:24;99631.81;;;2.78;92.57
17230;BME280;8731;50.364;8.958;2022-11-20T06:05:47;99619.78;;;2.76;91.49
17230;BME280;8731;50.364;8.958;2022-11-20T06:10:09;99609.94;;;2.70;91.28
17230;BME280;8731;50.364;8.958;2022-11-20T06:14:33;99613.31;;;2.78;91.46
17230;BME280;8731;50.364;8.958;2022-11-20T06:18:56;99610.28;;;2.73;91.64
17230;BME280;8731;50.364;8.958;2022-11-20T06:23:18;99619.06;;;2.77;91.91
17230;BME280;8731;50.364;8.958;2022-11-20T06:27:40;99620.13;;;2.79;90.71
17230;BME280;8731;50.364;8.958;2022-11-20T06:32:04;99622.31;;;2.76;91.25
17230;BME280;8731;50.364;8.958;2022-11-20T06:36:27;99624.25;;;2.78;90.78
17230;BME280;8731;50.364;8.958;2022-11-20T06:40:49;99611.59;;;2.63;90.62
17230;BME280;8731;50.364;8.958;2022-11-20T06:45:11;99625.28;;;2.36;91.24
17230;BME280;8731;50.364;8.958;2022-11-20T06:49:35;99620.22;;;2.65;91.72
17230;BME280;8731;50.364;8.958;2022-11-20T06:53:58;99603.78;;;2.38;93.78
17230;BME280;8731;50.364;8.958;2022-11-20T06:58:21;99590.31;;;2.45;94.04
17230;BME280;8731;50.364;8.958;2022-11-20T07:02:44;99594.19;;;2.57;92.38
17230;BME280;8731;50.364;8.958;2022-11-20T07:07:08;99609.25;;;2.64;93.45
17230;BME280;8731;50.364;8.958;2022-11-20T07:11:30;99617.66;;;2.72;93.73
17230;BME280;8731;50.364;8.958;2022-11-20T07:15:53;99613.69;;;2.74;92.89
17230;BME280;8731;50.364;8.958;2022-11-20T07:20:15;99604.19;;;2.71;93.64
17230;BME280;8731;50.364;8.958;2022-11-20T07:24:39;99619.41;;;2.80;92.94
17230;BME280;8731;50.364;8.958;2022-11-20T07:29:01;99616.34;;;2.83;92.96
17230;BME280;8731;50.364;8.958;2022-11-20T07:33:23;99621.88;;;2.94;94.53
17230;BME280;8731;50.364;8.958;2022-11-20T07:37:46;99611.66;;;2.93;93.81
17230;BME280;8731;50.364;8.958;2022-11-20T07:42:10;99614.84;;;2.99;93.79
17230;BME280;8731;50.364;8.958;2022-11-20T07:46:33;99626.13;;;3.02;93.58
17230;BME280;8731;50.364;8.958;2022-11-20T07:50:55;99619.88;;;2.99;93.86
17230;BME280;8731;50.364;8.958;2022-11-20T07:55:18;99615.53;;;3.05;93.66
17230;BME280;8731;50.364;8.958;2022-11-20T07:59:42;99625.75;;;3.14;93.13
17230;BME280;8731;50.364;8.958;2022-11-20T08:04:06;99635.97;;;3.15;93.64
17230;BME280;8731;50.364;8.958;2022-11-20T08:08:28;99636.13;;;3.17;92.85
17230;BME280;8731;50.364;8.958;2022-11-20T08:12:52;99649.03;;;3.20;93.36
17230;BME280;8731;50.364;8.958;2022-11-20T08:17:34;99654.47;;;3.16;93.60
17230;BME280;8731;50.364;8.958;2022-11-20T08:21:56;99650.44;;;3.25;94.07
17230;BME280;8731;50.364;8.958;2022-11-20T08:26:18;99671.25;;;3.31;93.79
17230;BME280;8731;50.364;8.958;2022-11-20T08:30:42;99659.38;;;3.37;93.88
17230;BME280;8731;50.364;8.958;2022-11-20T08:35:08;99663.91;;;3.32;93.72
17230;BME280;8731;50.364;8.958;2022-11-20T08:39:30;99657.59;;;3.36;93.30
17230;BME280;8731;50.364;8.958;2022-11-20T08:43:55;99659.94;;;3.34;93.15
17230;BME280;8731;50.364;8.958;2022-11-20T08:48:18;99647.88;;;3.39;94.02
17230;BME280;8731;50.364;8.958;2022-11-20T08:52:42;99657.53;;;3.43;93.36
17230;BME280;8731;50.364;8.958;2022-11-20T08:57:05;99659.34;;;3.44;93.33
17230;BME280;8731;50.364;8.958;2022-11-20T09:01:28;99667.72;;;3.52;93.76
17230;BME280;8731;50.364;8.958;2022-11-20T09:05:51;99670.78;;;3.56;93.31
17230;BME280;8731;50.364;8.958;2022-11-20T09:10:18;99675.81;;;3.56;93.72
17230;BME280;8731;50.364;8.958;2022-11-20T09:14:41;99670.31;;;3.67;92.75
17230;BME280;8731;50.364;8.958;2022-11-20T09:19:03;99674.13;;;3.64;92.95
17230;BME280;8731;50.364;8.958;2022-11-20T09:23:26;99678.94;;;3.69;92.38
17230;BME280;8731;50.364;8.958;2022-11-20T09:27:55;99685.91;;;3.49;92.36
17230;BME280;8731;50.364;8.958;2022-11-20T09:32:18;99681.63;;;3.71;92.50
17230;BME280;8731;50.364;8.958;2022-11-20T09:36:40;99674.72;;;3.84;92.64
17230;BME280;8731;50.364;8.958;2022-11-20T09:41:04;99680.88;;;3.79;91.79
17230;BME280;8731;50.364;8.958;2022-11-20T09:45:41;99674.03;;;4.01;92.24
17230;BME280;8731;50.364;8.958;2022-11-20T09:50:24;99671.13;;;4.05;92.08
17230;BME280;8731;50.364;8.958;2022-11-20T09:54:53;99667.81;;;4.13;91.88
17230;BME280;8731;50.364;8.958;2022-11-20T09:59:26;99665.63;;;4.16;90.66
17230;BME280;8731;50.364;8.958;2022-11-20T10:03:58;99663.03;;;4.23;91.01
17230;BME280;8731;50.364;8.958;2022-11-20T10:08:25;99667.31;;;4.31;91.32
17230;BME280;8731;50.364;8.958;2022-11-20T10:13:10;99654.50;;;4.14;90.42
17230;BME280;8731;50.364;8.958;2022-11-20T10:17:54;99658.06;;;4.55;91.72
17230;BME280;8731;50.364;8.958;2022-11-20T10:22:43;99664.91;;;4.56;91.38
17230;BME280;8731;50.364;8.958;2022-11-20T10:27:25;99660.09;;;4.66;90.97
17230;BME280;8731;50.364;8.958;2022-11-20T10:32:02;99658.56;;;4.59;90.21
17230;BME280;8731;50.364;8.958;2022-11-20T10:36:33;99649.13;;;4.81;89.95
17230;BME280;8731;50.364;8.958;2022-11-20T10:41:01;99649.72;;;4.79;89.96
17230;BME280;8731;50.364;8.958;2022-11-20T10:45:48;99646.78;;;4.83;89.66
17230;BME280;8731;50.364;8.958;2022-11-20T10:50:19;99644.63;;;4.94;89.89
17230;BME280;8731;50.364;8.958;2022-11-20T10:54:46;99628.59;;;4.94;89.51
17230;BME280;8731;50.364;8.958;2022-11-20T10:59:30;99640.63;;;4.97;88.93
17230;BME280;8731;50.364;8.958;2022-11-20T11:04:04;99624.06;;;4.99;88.54
17230;BME280;8731;50.364;8.958;2022-11-20T11:08:41;99623.59;;;5.18;88.14
17230;BME280;8731;50.364;8.958;2022-11-20T11:13:05;99610.16;;;5.75;89.49
17230;BME280;8731;50.364;8.958;2022-11-20T11:17:31;99603.50;;;5.51;88.50
17230;BME280;8731;50.364;8.958;2022-11-20T11:21:56;99603.41;;;5.18;87.15
17230;BME280;8731;50.364;8.958;2022-11-20T11:26:21;99589.84;;;5.09;86.91
17230;BME280;8731;50.364;8.958;2022-11-20T11:30:45;99586.28;;;5.32;87.37
17230;BME280;8731;50.364;8.958;2022-11-20T11:35:22;99592.66;;;5.52;87.69
17230;BME280;8731;50.364;8.958;2022-11-20T11:39:46;99581.38;;;5.58;87.09
17230;BME280;8731;50.364;8.958;2022-11-20T11:44:17;99582.75;;;5.63;86.45
17230;BME280;8731;50.364;8.958;2022-11-20T11:49:01;99580.22;;;5.63;86.58
17230;BME280;8731;50.364;8.958;2022-11-20T11:53:38;99576.88;;;5.46;85.59
17230;BME280;8731;50.364;8.958;2022-11-20T11:58:11;99578.16;;;5.67;85.93
17230;BME280;8731;50.364;8.958;2022-11-20T12:02:52;99575.47;;;5.66;85.80
17230;BME280;8731;50.364;8.958;2022-11-20T12:07:30;99576.47;;;5.50;85.51
17230;BME280;8731;50.364;8.958;2022-11-20T12:12:05;99564.09;;;5.69;85.46
17230;BME280;8731;50.364;8.958;2022-11-20T12:16:36;99560.59;;;5.60;86.25
17230;BME280;8731;50.364;8.958;2022-11-20T12:21:08;99572.41;;;5.68;85.50
17230;BME280;8731;50.364;8.958;2022-11-20T12:25:38;99558.22;;;5.62;85.46
17230;BME280;8731;50.364;8.958;2022-11-20T12:30:08;99548.75;;;5.68;85.44
17230;BME280;8731;50.364;8.958;2022-11-20T12:34:47;99548.13;;;5.62;85.04
17230;BME280;8731;50.364;8.958;2022-11-20T12:39:30;99548.31;;;5.39;85.68
17230;BME280;8731;50.364;8.958;2022-11-20T12:44:05;99534.81;;;5.38;86.16
17230;BME280;8731;50.364;8.958;2022-11-20T12:49:13;99540.03;;;5.15;85.78
17230;BME280;8731;50.364;8.958;2022-11-20T12:53:58;99528.84;;;5.29;86.17
17230;BME280;8731;50.364;8.958;2022-11-20T12:58:35;99541.75;;;4.83;86.40
17230;BME280;8731;50.364;8.958;2022-11-20T13:03:37;99545.75;;;5.06;86.55
17230;BME280;8731;50.364;8.958;2022-11-20T13:08:08;99541.44;;;5.29;86.47
17230;BME280;8731;50.364;8.958;2022-11-20T13:12:40;99545.72;;;4.97;85.75
17230;BME280;8731;50.364;8.958;2022-11-20T13:17:11;99527.88;;;4.96;86.50
17230;BME280;8731;50.364;8.958;2022-11-20T13:21:42;99533.25;;;4.99;86.28
17230;BME280;8731;50.364;8.958;2022-11-20T13:26:15;99516.09;;;4.87;86.35
17230;BME280;8731;50.364;8.958;2022-11-20T13:30:49;99507.53;;;4.94;86.34
17230;BME280;8731;50.364;8.958;2022-11-20T13:35:24;99495.94;;;5.12;85.93
17230;BME280;8731;50.364;8.958;2022-11-20T13:39:51;99503.72;;;5.22;86.23
17230;BME280;8731;50.364;8.958;2022-11-20T13:44:24;99498.56;;;5.05;85.90
17230;BME280;8731;50.364;8.958;2022-11-20T13:48:51;99501.72;;;5.11;86.88
17230;BME280;8731;50.364;8.958;2022-11-20T13:53:32;99492.66;;;5.13;86.53
17230;BME280;8731;50.364;8.958;2022-11-20T13:58:21;99495.81;;;5.19;86.36
17230;BME280;8731;50.364;8.958;2022-11-20T14:03:02;99486.53;;;5.02;87.28
17230;BME280;8731;50.364;8.958;2022-11-20T14:07:35;99469.13;;;4.97;88.55
17230;BME280;8731;50.364;8.958;2022-11-20T14:12:02;99473.34;;;5.05;87.80
17230;BME280;8731;50.364;8.958;2022-11-20T14:16:27;99465.91;;;4.98;89.73
17230;BME280;8731;50.364;8.958;2022-11-20T14:20:52;99461.34;;;5.11;89.67
17230;BME280;8731;50.364;8.958;2022-11-20T14:25:19;99450.38;;;5.10;90.08
17230;BME280;8731;50.364;8.958;2022-11-20T14:29:49;99456.44;;;5.04;89.60
17230;BME280;8731;50.364;8.958;2022-11-20T14:34:15;99454.34;;;5.00;90.74
17230;BME280;8731;50.364;8.958;2022-11-20T14:38:44;99445.03;;;4.58;91.88
17230;BME280;8731;50.364;8.958;2022-11-20T14:43:18;99442.50;;;4.83;91.55
17230;BME280;8731;50.364;8.958;2022-11-20T14:47:43;99436.78;;;4.68;92.41
17230;BME280;8731;50.364;8.958;2022-11-20T14:52:15;99429.31;;;4.85;91.90
17230;BME280;8731;50.364;8.958;2022-11-20T14:56:40;99432.91;;;4.96;92.39
17230;BME280;8731;50.364;8.958;2022-11-20T15:01:04;99439.84;;;4.81;91.91
17230;BME280;8731;50.364;8.958;2022-11-20T15:05:47;99426.38;;;4.65;92.86
17230;BME280;8731;50.364;8.958;2022-11-20T15:10:12;99412.03;;;4.73;93.34
17230;BME280;8731;50.364;8.958;2022-11-20T15:14:42;99410.00;;;4.77;94.37
17230;BME280;8731;50.364;8.958;2022-11-20T15:19:16;99409.16;;;4.85;93.96
17230;BME280;8731;50.364;8.958;2022-11-20T15:23:40;99392.50;;;4.79;94.82
17230;BME280;8731;50.364;8.958;2022-11-20T15:28:04;99393.59;;;4.65;96.77
17230;BME280;8731;50.364;8.958;2022-11-20T15:32:38;99382.94;;;4.68;96.25
17230;BME280;8731;50.364;8.958;2022-11-20T15:37:00;99372.88;;;4.43;98.47
17230;BME280;8731;50.364;8.958;2022-11-20T15:41:23;99378.22;;;4.46;97.09
17230;BME280;8731;50.364;8.958;2022-11-20T15:45:46;99368.69;;;4.68;95.95
17230;BME280;8731;50.364;8.958;2022-11-20T15:50:16;99364.63;;;4.77;96.85
17230;BME280;8731;50.364;8.958;2022-11-20T15:54:39;99362.19;;;4.70;97.09
17230;BME280;8731;50.364;8.958;2022-11-20T15:59:01;99362.47;;;4.65;96.24
17230;BME280;8731;50.364;8.958;2022-11-20T16:03:24;99357.69;;;4.59;98.95
17230;BME280;8731;50.364;8.958;2022-11-20T16:07:47;99350.97;;;4.75;97.94
17230;BME280;8731;50.364;8.958;2022-11-20T16:12:10;99350.41;;;4.86;96.64
17230;BME280;8731;50.364;8.958;2022-11-20T16:16:53;99342.97;;;4.79;96.27
17230;BME280;8731;50.364;8.958;2022-11-20T16:21:16;99333.25;;;4.67;95.10
17230;BME280;8731;50.364;8.958;2022-11-20T16:25:39;99330.50;;;4.81;96.10
17230;BME280;8731;50.364;8.958;2022-11-20T16:30:02;99319.53;;;4.80;95.66
17230;BME280;8731;50.364;8.958;2022-11-20T16:34:24;99315.41;;;4.89;96.51
17230;BME280;8731;50.364;8.958;2022-11-20T16:38:51;99315.59;;;5.00;96.44
17230;BME280;8731;50.364;8.958;2022-11-20T16:43:16;99305.75;;;4.85;97.96
17230;BME280;8731;50.364;8.958;2022-11-20T16:47:38;99308.19;;;4.68;99.98
17230;BME280;8731;50.364;8.958;2022-11-20T16:52:02;99300.78;;;4.70;100.00
17230;BME280;8731;50.364;8.958;2022-11-20T16:56:25;99291.50;;;4.77;98.85
17230;BME280;8731;50.364;8.958;2022-11-20T17:00:49;99295.75;;;4.70;100.00
17230;BME280;8731;50.364;8.958;2022-11-20T17:05:11;99287.06;;;4.92;99.15
17230;BME280;8731;50.364;8.958;2022-11-20T17:09:34;99294.34;;;4.89;99.40
17230;BME280;8731;50.364;8.958;2022-11-20T17:13:57;99280.53;;;4.94;98.04
17230;BME280;8731;50.364;8.958;2022-11-20T17:18:22;99272.72;;;5.00;97.69
17230;BME280;8731;50.364;8.958;2022-11-20T17:22:45;99275.78;;;4.88;99.09
17230;BME280;8731;50.364;8.958;2022-11-20T17:27:07;99274.50;;;5.01;99.59
17230;BME280;8731;50.364;8.958;2022-11-20T17:31:31;99284.91;;;5.12;98.59
17230;BME280;8731;50.364;8.958;2022-11-20T17:35:56;99283.72;;;5.09;98.89
17230;BME280;8731;50.364;8.958;2022-11-20T17:40:18;99285.66;;;5.20;98.36
17230;BME280;8731;50.364;8.958;2022-11-20T17:44:41;99272.72;;;5.17;98.99
17230;BME280;8731;50.364;8.958;2022-11-20T17:49:03;99265.47;;;5.20;98.86
17230;BME280;8731;50.364;8.958;2022-11-20T17:53:31;99256.09;;;5.19;98.56
17230;BME280;8731;50.364;8.958;2022-11-20T17:57:54;99233.13;;;5.24;99.35
17230;BME280;8731;50.364;8.958;2022-11-20T18:02:21;99230.75;;;5.26;100.00
17230;BME280;8731;50.364;8.958;2022-11-20T18:06:44;99224.22;;;5.28;100.00
17230;BME280;8731;50.364;8.958;2022-11-20T18:11:12;99220.38;;;5.32;100.00
17230;BME280;8731;50.364;8.958;2022-11-20T18:15:36;99209.22;;;5.38;99.61
17230;BME280;8731;50.364;8.958;2022-11-20T18:19:58;99212.19;;;5.43;99.64
17230;BME280;8731;50.364;8.958;2022-11-20T18:24:20;99193.94;;;5.45;99.68
17230;BME280;8731;50.364;8.958;2022-11-20T18:28:45;99181.63;;;5.48;98.95
17230;BME280;8731;50.364;8.958;2022-11-20T18:33:07;99179.97;;;5.58;100.00
17230;BME280;8731;50.364;8.958;2022-11-20T18:37:30;99169.13;;;5.41;100.00
17230;BME280;8731;50.364;8.958;2022-11-20T18:41:53;99161.09;;;5.54;100.00
17230;BME280;8731;50.364;8.958;2022-11-20T18:46:34;99154.00;;;5.41;100.00
17230;BME280;8731;50.364;8.958;2022-11-20T18:51:03;99140.34;;;5.48;100.00
17230;BME280;8731;50.364;8.958;2022-11-20T18:55:27;99122.78;;;5.58;100.00
17230;BME280;8731;50.364;8.958;2022-11-20T18:59:49;99116.53;;;5.63;100.00
17230;BME280;8731;50.364;8.958;2022-11-20T19:04:15;99104.78;;;5.64;100.00
17230;BME280;8731;50.364;8.958;2022-11-20T19:08:39;99097.06;;;5.62;100.00
17230;BME280;8731;50.364;8.958;2022-11-20T19:13:01;99091.13;;;5.70;100.00
17230;BME280;8731;50.364;8.958;2022-11-20T19:17:24;99081.03;;;5.70;100.00
17230;BME280;8731;50.364;8.958;2022-11-20T19:21:47;99080.91;;;5.60;100.00
17230;BME280;8731;50.364;8.958;2022-11-20T19:26:09;99077.63;;;5.70;100.00
17230;BME280;8731;50.364;8.958;2022-11-20T19:30:32;99083.97;;;5.75;100.00
17230;BME280;8731;50.364;8.958;2022-11-20T19:34:54;99067.06;;;5.74;100.00
17230;BME280;8731;50.364;8.958;2022-11-20T19:39:18;99065.38;;;5.83;100.00
17230;BME280;8731;50.364;8.958;2022-11-20T19:43:40;99060.59;;;5.86;100.00
17230;BME280;8731;50.364;8.958;2022-11-20T19:48:03;99048.09;;;5.88;100.00
17230;BME280;8731;50.364;8.958;2022-11-20T19:52:25;99044.56;;;5.94;100.00
17230;BME280;8731;50.364;8.958;2022-11-20T19:56:49;99034.72;;;5.97;100.00
17230;BME280;8731;50.364;8.958;2022-11-20T20:01:13;99032.00;;;6.04;100.00
17230;BME280;8731;50.364;8.958;2022-11-20T20:05:37;99018.91;;;6.08;100.00
17230;BME280;8731;50.364;8.958;2022-11-20T20:09:59;99018.56;;;6.14;100.00
17230;BME280;8731;50.364;8.958;2022-11-20T20:14:23;99009.06;;;6.11;100.00
17230;BME280;8731;50.364;8.958;2022-11-20T20:18:46;98997.75;;;6.17;100.00
17230;BME280;8731;50.364;8.958;2022-11-20T20:23:08;98992.97;;;6.20;100.00
17230;BME280;8731;50.364;8.958;2022-11-20T20:27:31;98986.41;;;6.22;100.00
17230;BME280;8731;50.364;8.958;2022-11-20T20:31:57;98985.66;;;6.23;100.00
17230;BME280;8731;50.364;8.958;2022-11-20T20:36:21;98984.91;;;6.24;100.00
17230;BME280;8731;50.364;8.958;2022-11-20T20:40:48;98976.84;;;6.28;100.00
17230;BME280;8731;50.364;8.958;2022-11-20T20:45:10;98972.06;;;6.31;100.00
17230;BME280;8731;50.364;8.958;2022-11-20T20:49:33;98972.28;;;6.24;100.00
17230;BME280;8731;50.364;8.958;2022-11-20T20:53:56;98976.47;;;6.42;100.00
17230;BME280;8731;50.364;8.958;2022-11-20T20:58:18;98975.63;;;6.33;100.00
17230;BME280;8731;50.364;8.958;2022-11-20T21:02:41;98960.28;;;6.40;100.00
17230;BME280;8731;50.364;8.958;2022-11-20T21:07:05;98969.94;;;6.35;100.00
17230;BME280;8731;50.364;8.958;2022-11-20T21:11:27;98967.50;;;6.45;100.00
17230;BME280;8731;50.364;8.958;2022-11-20T21:15:50;98966.47;;;6.43;100.00
17230;BME280;8731;50.364;8.958;2022-11-20T21:20:12;98965.16;;;6.38;100.00
17230;BME280;8731;50.364;8.958;2022-11-20T21:24:50;98965.09;;;6.47;100.00
17230;BME280;8731;50.364;8.958;2022-11-20T21:29:13;98959.16;;;6.46;100.00
17230;BME280;8731;50.364;8.958;2022-11-20T21:33:37;98945.91;;;6.49;100.00
17230;BME280;8731;50.364;8.958;2022-11-20T21:38:00;98946.66;;;6.48;100.00
17230;BME280;8731;50.364;8.958;2022-11-20T21:42:23;98949.44;;;6.51;100.00
17230;BME280;8731;50.364;8.958;2022-11-20T21:46:46;98947.28;;;6.45;100.00
17230;BME280;8731;50.364;8.958;2022-11-20T21:51:10;98946.91;;;6.51;100.00
17230;BME280;8731;50.364;8.958;2022-11-20T21:55:33;98945.16;;;6.50;100.00
17230;BME280;8731;50.364;8.958;2022-11-20T21:59:57;98940.09;;;6.50;100.00
17230;BME280;8731;50.364;8.958;2022-11-20T22:04:19;98948.06;;;6.55;100.00
17230;BME280;8731;50.364;8.958;2022-11-20T22:08:42;98949.31;;;6.50;100.00
17230;BME280;8731;50.364;8.958;2022-11-20T22:13:05;98948.44;;;6.49;100.00
17230;BME280;8731;50.364;8.958;2022-11-20T22:17:46;98939.56;;;6.44;100.00
17230;BME280;8731;50.364;8.958;2022-11-20T22:22:25;98933.88;;;6.46;100.00
17230;BME280;8731;50.364;8.958;2022-11-20T22:26:48;98933.06;;;6.37;100.00
17230;BME280;8731;50.364;8.958;2022-11-20T22:31:10;98928.28;;;6.40;100.00
17230;BME280;8731;50.364;8.958;2022-11-20T22:35:34;98905.06;;;6.44;100.00
17230;BME280;8731;50.364;8.958;2022-11-20T22:39:56;98919.34;;;6.44;100.00
17230;BME280;8731;50.364;8.958;2022-11-20T22:44:19;98911.19;;;6.38;100.00
17230;BME280;8731;50.364;8.958;2022-11-20T22:48:42;98911.00;;;6.45;100.00
17230;BME280;8731;50.364;8.958;2022-11-20T22:53:10;98917.81;;;6.46;100.00
17230;BME280;8731;50.364;8.958;2022-11-20T22:57:33;98927.81;;;6.44;100.00
17230;BME280;8731;50.364;8.958;2022-11-20T23:01:55;98921.25;;;6.46;100.00
17230;BME280;8731;50.364;8.958;2022-11-20T23:06:18;98933.00;;;6.46;100.00
17230;BME280;8731;50.364;8.958;2022-11-20T23:10:43;98937.03;;;6.44;100.00
17230;BME280;8731;50.364;8.958;2022-11-20T23:15:07;98924.53;;;6.45;100.00
17230;BME280;8731;50.364;8.958;2022-11-20T23:19:30;98915.06;;;6.53;100.00
17230;BME280;8731;50.364;8.958;2022-11-20T23:23:54;98922.88;;;6.46;100.00
17230;BME280;8731;50.364;8.958;2022-11-20T23:28:18;98931.13;;;6.54;100.00
17230;BME280;8731;50.364;8.958;2022-11-20T23:32:40;98933.53;;;6.52;100.00
17230;BME280;8731;50.364;8.958;2022-11-20T23:37:03;98940.97;;;6.51;100.00
17230;BME280;8731;50.364;8.958;2022-11-20T23:41:25;98942.88;;;6.53;100.00
17230;BME280;8731;50.364;8.958;2022-11-20T23:45:50;98936.31;;;6.55;100.00
17230;BME280;8731;50.364;8.958;2022-11-20T23:50:13;98932.84;;;6.63;100.00
17230;BME280;8731;50.364;8.958;2022-11-20T23:54:36;98935.84;;;6.59;100.00
17230;BME280;8731;50.364;8.958;2022-11-20T23:58:58;98930.31;;;6.63;100.00
